Time;durP1;ratioP1;P1;durP2;ratioP2;P2;SDS_P1;SDS_P2;PMS_P1;PMS_P2;Temp;Humidity;BMP_temperature;BMP_pressure;BME280_temperature;BME280_humidity;BME280_pressure;Samples;Min_cycle;Max_cycle;Signal;HPM_P1;HPM_P2
2022/09/11 00:01:15;;;;;;;32.70;19.70;;;;;;;16.85;100.00;100641.00;8294212;28;20402;-50
2022/09/11 00:05:15;;;;;;;29.85;19.20;;;;;;;16.81;100.00;100647.88;8293624;28;20033;-48
2022/09/11 00:09:16;;;;;;;35.88;21.02;;;;;;;16.77;100.00;100649.25;8295039;28;20411;-50
2022/09/11 00:13:20;;;;;;;31.33;19.73;;;;;;;16.70;100.00;100656.44;8259430;28;20495;-50
2022/09/11 00:17:20;;;;;;;41.38;21.33;;;;;;;16.68;100.00;100653.88;8280540;28;20264;-52
2022/09/11 00:21:21;;;;;;;42.55;22.67;;;;;;;16.72;100.00;100660.72;8296152;28;20121;-53
2022/09/11 00:25:21;;;;;;;42.47;23.10;;;;;;;16.73;100.00;100658.81;8294250;28;20042;-52
2022/09/11 00:29:22;;;;;;;42.90;25.95;;;;;;;16.79;100.00;100663.56;8293024;28;20041;-51
2022/09/11 00:33:22;;;;;;;40.05;25.73;;;;;;;16.75;100.00;100649.44;8293122;28;20479;-49
2022/09/11 00:37:23;;;;;;;43.95;26.52;;;;;;;16.73;100.00;100653.34;8292772;28;20034;-49
2022/09/11 00:41:27;;;;;;;47.78;27.33;;;;;;;16.68;100.00;100658.50;8292970;28;20038;-52
2022/09/11 00:45:27;;;;;;;51.90;29.65;;;;;;;16.65;100.00;100664.31;8292871;28;20042;-49
2022/09/11 00:49:40;;;;;;;53.45;31.98;;;;;;;16.66;100.00;100660.56;8296503;28;20487;-51
2022/09/11 00:53:41;;;;;;;63.00;34.45;;;;;;;16.65;100.00;100653.41;8290599;28;20409;-48
2022/09/11 00:57:45;;;;;;;66.45;35.25;;;;;;;16.63;100.00;100660.91;8292201;28;20065;-50
2022/09/11 01:01:46;;;;;;;67.10;37.55;;;;;;;16.64;100.00;100651.69;8294138;28;20030;-52
2022/09/11 01:05:47;;;;;;;75.78;39.38;;;;;;;16.66;100.00;100666.00;8294072;28;20049;-49
2022/09/11 01:09:48;;;;;;;74.10;39.95;;;;;;;16.62;100.00;100675.59;8294105;28;20037;-51
2022/09/11 01:14:14;;;;;;;76.28;38.95;;;;;;;16.67;100.00;100684.09;8298010;28;20037;-49
2022/09/11 01:18:40;;;;;;;70.45;38.92;;;;;;;16.78;100.00;100686.44;8288764;28;20052;-52
2022/09/11 01:23:20;;;;;;;70.25;38.55;;;;;;;16.86;100.00;100676.34;8292357;28;20042;-50
2022/09/11 01:27:43;;;;;;;71.43;37.63;;;;;;;16.89;100.00;100678.72;8290179;28;20073;-49
2022/09/11 01:32:12;;;;;;;71.37;37.57;;;;;;;16.86;100.00;100678.22;8282224;28;20060;-49
2022/09/11 01:36:27;;;;;;;73.65;37.92;;;;;;;16.83;100.00;100684.88;8290352;28;20041;-49
2022/09/11 01:40:39;;;;;;;67.18;37.05;;;;;;;16.86;100.00;100683.66;8289908;28;20483;-51
2022/09/11 01:44:48;;;;;;;67.75;38.88;;;;;;;16.93;100.00;100695.63;8292016;28;20050;-50
2022/09/11 01:48:59;;;;;;;70.68;40.53;;;;;;;16.92;100.00;100704.81;8290757;28;20041;-49
2022/09/11 01:53:04;;;;;;;78.63;40.08;;;;;;;16.92;100.00;100696.63;8291649;28;20438;-50
2022/09/11 01:57:10;;;;;;;74.30;39.92;;;;;;;16.91;100.00;100714.03;8296030;28;20072;-52
2022/09/11 02:01:17;;;;;;;77.28;41.22;;;;;;;16.92;100.00;100715.75;8286464;28;20049;-50
2022/09/11 02:05:27;;;;;;;75.32;39.20;;;;;;;16.92;100.00;100707.53;8287295;28;20349;-49
2022/09/11 02:09:33;;;;;;;78.82;39.85;;;;;;;16.95;100.00;100715.38;8291338;28;20025;-49
2022/09/11 02:14:01;;;;;;;78.85;38.17;;;;;;;16.89;100.00;100714.22;8292707;28;20390;-50
2022/09/11 02:18:14;;;;;;;82.53;41.67;;;;;;;16.91;100.00;100708.59;8289349;28;20045;-49
2022/09/11 02:22:14;;;;;;;84.95;40.35;;;;;;;16.98;100.00;100715.03;8285362;28;20522;-50
2022/09/11 02:26:17;;;;;;;80.00;39.63;;;;;;;17.04;100.00;100730.72;8291671;28;20042;-48
2022/09/11 02:30:18;;;;;;;78.90;38.63;;;;;;;17.07;100.00;100730.38;8295811;28;20034;-52
2022/09/11 02:34:25;;;;;;;82.82;39.88;;;;;;;17.11;100.00;100729.00;8291022;28;20133;-54
2022/09/11 02:38:38;;;;;;;82.55;41.50;;;;;;;17.12;100.00;100727.97;8291578;28;20034;-50
2022/09/11 02:51:38;;;;;;;81.93;42.38;;;;;;;17.18;100.00;100743.66;8307043;27;20369;-53
2022/09/11 02:59:59;;;;;;;82.85;42.88;;;;;;;17.17;100.00;100742.78;8370533;27;20437;-53
2022/09/11 03:04:00;;;;;;;84.80;41.60;;;;;;;17.18;100.00;100743.66;8357233;28;20048;-52
2022/09/11 03:08:03;;;;;;;93.38;42.92;;;;;;;17.16;100.00;100752.03;8367829;28;20043;-52
2022/09/11 03:12:04;;;;;;;86.40;42.65;;;;;;;17.13;100.00;100746.91;8367284;28;20029;-50
2022/09/11 03:16:05;;;;;;;92.80;43.92;;;;;;;17.12;100.00;100761.63;8367133;28;20064;-53
2022/09/11 03:20:06;;;;;;;86.90;42.30;;;;;;;17.13;100.00;100752.38;8359498;28;20075;-52
2022/09/11 03:24:08;;;;;;;77.95;40.38;;;;;;;17.13;100.00;100746.06;8366783;28;20086;-53
2022/09/11 03:28:08;;;;;;;78.32;41.72;;;;;;;17.07;100.00;100749.50;8370535;28;20032;-51
2022/09/11 03:32:09;;;;;;;84.10;42.13;;;;;;;17.01;100.00;100755.66;8373159;28;20167;-54
2022/09/11 03:36:11;;;;;;;86.93;42.53;;;;;;;16.98;100.00;100756.00;8382002;28;20059;-54
2022/09/11 03:40:11;;;;;;;84.15;42.20;;;;;;;17.01;100.00;100752.94;8382212;28;20086;-54
2022/09/11 03:44:11;;;;;;;83.80;42.85;;;;;;;17.02;100.00;100755.47;8380581;28;20052;-52
2022/09/11 03:48:12;;;;;;;89.97;44.17;;;;;;;17.04;100.00;100752.56;8382550;28;20073;-51
2022/09/11 03:52:12;;;;;;;82.63;42.47;;;;;;;17.05;100.00;100759.75;8380874;28;20033;-52
2022/09/11 03:56:13;;;;;;;84.85;40.80;;;;;;;17.06;100.00;100761.47;8381678;28;20521;-50
2022/09/11 04:00:14;;;;;;;83.85;41.85;;;;;;;17.04;100.00;100752.56;8382594;28;20045;-50
2022/09/11 04:04:15;;;;;;;88.55;41.25;;;;;;;17.04;100.00;100753.44;8380365;28;20045;-53
2022/09/11 04:08:15;;;;;;;84.72;42.08;;;;;;;17.05;100.00;100757.84;8378510;28;20135;-53
2022/09/11 04:12:16;;;;;;;77.95;40.20;;;;;;;17.03;100.00;100756.34;8356241;28;20549;-53
2022/09/11 04:16:18;;;;;;;75.30;37.78;;;;;;;17.03;100.00;100756.34;8360387;28;20033;-51
2022/09/11 04:20:19;;;;;;;74.35;38.22;;;;;;;17.06;100.00;100761.47;8357870;28;20049;-50
2022/09/11 04:24:19;;;;;;;76.50;38.92;;;;;;;17.05;100.00;100748.84;8361017;28;20052;-50
2022/09/11 04:28:21;;;;;;;74.80;38.60;;;;;;;17.04;100.00;100758.03;8358223;28;20486;-50
2022/09/11 04:32:21;;;;;;;69.90;36.58;;;;;;;17.04;100.00;100756.16;8358003;28;20333;-53
2022/09/11 04:36:23;;;;;;;73.28;37.67;;;;;;;17.02;100.00;100762.84;8355248;28;20033;-51
2022/09/11 04:40:23;;;;;;;76.93;38.55;;;;;;;16.96;100.00;100763.53;8357584;28;20038;-53
2022/09/11 04:44:25;;;;;;;71.85;38.60;;;;;;;17.00;100.00;100768.50;8355196;28;20482;-52
2022/09/11 04:48:25;;;;;;;79.22;39.83;;;;;;;16.95;100.00;100764.56;8357406;28;20036;-54
2022/09/11 04:52:26;;;;;;;71.23;37.80;;;;;;;16.90;100.00;100772.44;8359345;28;20037;-50
2022/09/11 04:56:29;;;;;;;80.28;37.40;;;;;;;16.87;100.00;100773.63;8358938;28;20278;-53
2022/09/11 05:00:29;;;;;;;73.60;37.33;;;;;;;16.89;100.00;100776.19;8351888;28;20494;-54
2022/09/11 05:04:30;;;;;;;79.53;36.72;;;;;;;16.91;100.00;100790.53;8356282;28;20165;-53
2022/09/11 05:08:32;;;;;;;78.78;37.47;;;;;;;16.92;100.00;100792.22;8341904;28;20033;-54
2022/09/11 05:12:32;;;;;;;73.43;38.25;;;;;;;16.92;100.00;100797.69;8342342;28;20422;-52
2022/09/11 05:16:34;;;;;;;75.78;36.65;;;;;;;16.92;100.00;100803.13;8355375;28;20138;-52
2022/09/11 05:20:34;;;;;;;80.93;39.22;;;;;;;16.89;100.00;100806.22;8380244;28;20037;-54
2022/09/11 05:24:35;;;;;;;81.77;39.33;;;;;;;16.99;100.00;100804.16;8359649;28;20029;-54
2022/09/11 05:28:36;;;;;;;84.13;40.60;;;;;;;16.96;100.00;100813.53;8360045;28;20631;-53
2022/09/11 05:32:36;;;;;;;83.60;38.90;;;;;;;17.05;100.00;100820.69;8358309;28;20505;-53
2022/09/11 05:36:37;;;;;;;83.15;39.65;;;;;;;17.05;100.00;100822.59;8357937;28;20448;-53
2022/09/11 05:40:43;;;;;;;92.63;40.25;;;;;;;17.01;100.00;100823.94;8357206;28;20040;-53
2022/09/11 05:44:46;;;;;;;88.30;41.65;;;;;;;17.00;100.00;100833.19;8359270;28;20509;-51
2022/09/11 05:48:47;;;;;;;84.72;41.33;;;;;;;16.94;100.00;100833.88;8358158;28;20460;-52
2022/09/11 05:52:47;;;;;;;86.32;41.90;;;;;;;16.95;100.00;100833.69;8359037;28;20112;-54
2022/09/11 05:56:47;;;;;;;88.75;40.65;;;;;;;16.93;100.00;100856.75;8359108;28;20383;-51
2022/09/11 06:00:48;;;;;;;93.30;40.70;;;;;;;16.92;100.00;100858.63;8358624;28;20048;-53
2022/09/11 06:04:49;;;;;;;94.72;41.10;;;;;;;16.91;100.00;100867.00;8358060;28;20045;-54
2022/09/11 06:08:50;;;;;;;100.47;44.47;;;;;;;16.84;100.00;100874.19;8356458;28;20399;-53
2022/09/11 06:12:50;;;;;;;94.97;43.00;;;;;;;16.84;100.00;100866.00;8352206;28;20050;-53
2022/09/11 06:16:53;;;;;;;101.10;45.70;;;;;;;16.74;100.00;100870.78;8355302;28;20041;-53
2022/09/11 06:20:55;;;;;;;102.93;43.80;;;;;;;16.79;100.00;100892.94;8356094;28;20310;-53
2022/09/11 06:24:55;;;;;;;105.03;44.42;;;;;;;16.83;100.00;100880.66;8350450;28;20398;-51
2022/09/11 06:28:56;;;;;;;104.97;46.42;;;;;;;16.80;100.00;100890.06;8354491;28;20060;-54
2022/09/11 06:32:57;;;;;;;107.10;46.03;;;;;;;16.85;100.00;100892.28;8355112;28;20071;-52
2022/09/11 06:36:58;;;;;;;102.47;45.47;;;;;;;16.89;100.00;100890.88;8349410;28;20033;-54
2022/09/11 06:41:03;;;;;;;101.03;43.13;;;;;;;16.89;100.00;100896.34;8356709;28;20032;-51
2022/09/11 06:45:06;;;;;;;103.53;43.65;;;;;;;16.92;100.00;100904.19;8355986;28;20275;-54
2022/09/11 06:49:06;;;;;;;100.35;43.30;;;;;;;16.95;100.00;100906.59;8352190;28;20055;-54
2022/09/11 06:53:08;;;;;;;105.60;43.75;;;;;;;16.98;100.00;100908.97;8357631;28;20037;-51
2022/09/11 06:57:08;;;;;;;108.30;44.30;;;;;;;17.00;100.00;100909.69;8351418;28;20041;-53
2022/09/11 07:01:11;;;;;;;104.72;45.38;;;;;;;16.99;100.00;100907.97;8356104;28;20079;-51
2022/09/11 07:05:12;;;;;;;104.03;43.42;;;;;;;17.10;100.00;100904.88;8354208;28;20504;-52
2022/09/11 07:09:12;;;;;;;93.50;40.85;;;;;;;17.16;100.00;100912.38;8350794;28;20033;-52
2022/09/11 07:13:13;;;;;;;89.68;39.85;;;;;;;17.26;100.00;100911.16;8348907;28;20059;-54
2022/09/11 07:17:13;;;;;;;84.20;39.15;;;;;;;17.42;100.00;100904.81;8354580;28;20048;-53
2022/09/11 07:21:17;;;;;;;72.22;36.90;;;;;;;17.53;100.00;100904.47;8355031;28;20121;-54
2022/09/11 07:25:17;;;;;;;66.67;34.27;;;;;;;18.03;100.00;100915.91;8351495;28;20047;-53
2022/09/11 07:29:18;;;;;;;62.17;32.17;;;;;;;18.18;100.00;100914.09;8351121;28;20044;-50
2022/09/11 07:33:18;;;;;;;61.42;32.15;;;;;;;18.27;100.00;100913.00;8348898;28;20045;-52
2022/09/11 07:37:18;;;;;;;52.63;30.20;;;;;;;18.30;100.00;100918.13;8355214;28;20059;-52
2022/09/11 07:41:20;;;;;;;53.22;29.10;;;;;;;18.08;100.00;100918.09;8353198;28;20041;-51
2022/09/11 07:45:21;;;;;;;53.55;29.67;;;;;;;18.41;100.00;100920.47;8355696;28;20375;-52
2022/09/11 07:49:21;;;;;;;53.17;28.13;;;;;;;18.52;100.00;100921.94;8362630;28;20032;-54
2022/09/11 07:53:23;;;;;;;50.90;27.65;;;;;;;18.50;100.00;100921.28;8359699;28;20123;-53
2022/09/11 07:57:24;;;;;;;49.45;27.65;;;;;;;18.71;100.00;100922.31;8358398;28;20033;-52
2022/09/11 08:01:28;;;;;;;48.80;26.98;;;;;;;18.60;100.00;100914.53;8355182;28;20049;-53
2022/09/11 08:05:28;;;;;;;47.63;28.02;;;;;;;18.62;100.00;100923.41;8352878;28;20060;-50
2022/09/11 08:09:29;;;;;;;51.72;28.95;;;;;;;18.74;100.00;100921.09;8360043;28;20044;-54
2022/09/11 08:13:29;;;;;;;47.30;26.20;;;;;;;19.04;100.00;100929.25;8357242;28;20036;-54
2022/09/11 08:17:30;;;;;;;52.10;27.17;;;;;;;19.69;100.00;100928.56;8357158;28;20344;-51
2022/09/11 08:21:31;;;;;;;42.72;23.98;;;;;;;20.13;100.00;100932.19;8354511;28;20093;-53
2022/09/11 08:25:35;;;;;;;36.25;22.35;;;;;;;20.49;95.35;100931.13;8361530;28;20039;-53
2022/09/11 08:29:35;;;;;;;38.67;21.20;;;;;;;20.75;93.30;100933.31;8350462;28;20064;-52
2022/09/11 08:33:36;;;;;;;39.67;22.52;;;;;;;20.92;95.68;100946.59;8346150;28;20048;-50
2022/09/11 08:37:36;;;;;;;38.70;20.98;;;;;;;21.34;92.21;100953.97;8351748;28;20070;-51
2022/09/11 08:41:47;;;;;;;35.38;21.98;;;;;;;21.18;91.10;100963.38;8349361;28;20131;-51
2022/09/11 08:45:50;;;;;;;35.53;21.90;;;;;;;20.70;93.76;100960.53;8350238;28;20132;-50
2022/09/11 08:49:58;;;;;;;39.67;21.33;;;;;;;20.78;94.01;100960.41;8347577;28;20120;-53
2022/09/11 08:54:01;;;;;;;33.75;20.90;;;;;;;20.68;94.00;100957.13;8349993;28;20044;-53
2022/09/11 09:03:01;;;;;;;34.50;20.38;;;;;;;20.10;94.50;100962.75;8344062;27;20422;-53
2022/09/11 09:07:27;;;;;;;31.52;18.60;;;;;;;20.51;89.24;100959.28;8328873;28;20159;-53
2022/09/11 09:16:30;;;;;;;27.63;15.45;;;;;;;20.78;88.10;100961.28;8275930;28;20399;-54
2022/09/11 09:20:34;;;;;;;26.40;14.27;;;;;;;20.82;86.92;100968.06;8303636;28;20053;-54
2022/09/11 09:24:43;;;;;;;21.70;12.75;;;;;;;22.04;81.42;100973.97;8304328;28;20281;-51
2022/09/11 09:28:46;;;;;;;20.10;11.98;;;;;;;22.58;78.08;100974.88;8291815;28;20546;-54
2022/09/11 09:33:26;;;;;;;16.23;10.95;;;;;;;22.29;80.58;100986.16;8287795;28;20038;-53
2022/09/11 09:37:27;;;;;;;18.13;11.15;;;;;;;21.70;82.50;100993.22;8292957;28;20042;-50
2022/09/11 09:41:55;;;;;;;20.08;12.48;;;;;;;21.10;84.04;100992.91;8281218;28;20121;-50
2022/09/11 09:46:22;;;;;;;24.27;13.38;;;;;;;20.54;88.18;100993.75;8298869;28;20050;-53
2022/09/11 09:50:29;;;;;;;28.83;16.13;;;;;;;20.35;90.43;100997.09;8293973;28;20045;-52
2022/09/11 09:54:35;;;;;;;25.35;15.65;;;;;;;20.27;90.46;100988.97;8294601;28;20499;-53
2022/09/11 09:58:41;;;;;;;21.67;13.32;;;;;;;20.38;90.66;100988.47;8292487;28;20042;-51
2022/09/11 10:02:53;;;;;;;17.90;13.13;;;;;;;20.45;89.23;100987.53;8290727;28;20116;-54
2022/09/11 10:07:13;;;;;;;20.17;13.27;;;;;;;20.80;87.00;100980.31;8283849;28;20034;-53
2022/09/11 10:11:17;;;;;;;28.90;18.08;;;;;;;21.00;89.83;100981.38;8290896;28;20323;-53
2022/09/11 10:15:24;;;;;;;32.85;19.80;;;;;;;21.15;88.98;100984.91;8303066;28;20435;-53
2022/09/11 10:19:42;;;;;;;29.00;18.80;;;;;;;21.62;86.51;100998.84;8275541;28;20440;-54
2022/09/11 10:24:00;;;;;;;22.60;15.55;;;;;;;21.71;83.72;100992.16;8297421;28;20450;-54
2022/09/11 10:28:19;;;;;;;26.50;16.70;;;;;;;21.63;83.31;100989.56;8285399;28;20266;-54
2022/09/11 10:32:21;;;;;;;26.60;18.17;;;;;;;21.70;85.09;100990.47;8249760;28;20038;-54
2022/09/11 10:36:26;;;;;;;33.55;20.20;;;;;;;22.02;83.96;100989.84;8258720;28;20178;-52
2022/09/11 10:40:27;;;;;;;30.27;18.52;;;;;;;22.15;82.25;100989.94;8253926;28;20096;-53
2022/09/11 10:44:29;;;;;;;21.10;13.98;;;;;;;22.96;76.78;100989.81;8239389;28;20190;-51
2022/09/11 10:48:31;;;;;;;26.48;17.80;;;;;;;23.01;78.00;100992.81;8240170;28;20041;-54
2022/09/11 10:52:31;;;;;;;21.77;14.45;;;;;;;23.63;73.06;100986.09;8246720;28;20057;-54
2022/09/11 10:56:38;;;;;;;21.27;14.10;;;;;;;25.36;68.79;100981.13;8267922;28;20138;-53
2022/09/11 11:00:39;;;;;;;21.30;14.68;;;;;;;26.30;65.68;100985.31;8279709;28;20030;-53
2022/09/11 11:04:39;;;;;;;18.08;14.32;;;;;;;27.06;64.72;100976.41;8253102;28;20035;-54
2022/09/11 11:09:04;;;;;;;29.17;17.60;;;;;;;28.31;60.53;100987.91;8265403;28;20681;-52
2022/09/11 11:13:45;;;;;;;23.85;15.68;;;;;;;26.83;64.00;100979.13;8267901;28;20042;-54
2022/09/11 11:18:25;;;;;;;23.30;14.55;;;;;;;26.57;63.44;100981.13;8266924;28;20322;-53
2022/09/11 11:32:00;;;;;;;19.45;14.75;;;;;;;24.07;73.29;100967.75;8409590;27;20369;-53
2022/09/11 11:36:40;;;;;;;20.85;13.40;;;;;;;27.22;62.68;100967.38;8373576;28;20043;-52
2022/09/11 11:40:48;;;;;;;21.73;14.60;;;;;;;27.94;59.98;100972.59;8392673;28;20565;-53
2022/09/11 11:44:57;;;;;;;17.13;11.95;;;;;;;25.43;65.33;100972.78;8387694;28;20521;-50
2022/09/11 11:49:01;;;;;;;18.13;11.60;;;;;;;23.16;73.08;100970.53;8405231;28;20037;-53
2022/09/11 11:57:24;;;;;;;16.75;11.02;;;;;;;26.34;63.85;100967.13;8310830;27;20405;-53
2022/09/11 12:01:47;;;;;;;20.00;13.02;;;;;;;25.74;65.10;100973.50;8287393;28;20120;-51
2022/09/11 12:05:47;;;;;;;13.17;10.13;;;;;;;27.75;61.57;100971.00;8308187;28;20122;-51
2022/09/11 12:09:49;;;;;;;15.40;11.80;;;;;;;25.61;64.51;100984.72;8313110;28;20041;-52
2022/09/11 12:13:53;;;;;;;16.45;12.05;;;;;;;23.33;72.59;100973.78;8312840;28;20052;-50
2022/09/11 12:18:18;;;;;;;18.08;11.38;;;;;;;24.25;70.35;100967.06;8306716;28;20033;-53
2022/09/11 12:22:32;;;;;;;15.30;10.63;;;;;;;25.55;65.90;100963.47;8328011;28;20068;-54
2022/09/11 12:26:33;;;;;;;12.13;9.20;;;;;;;25.01;65.67;100963.28;8309713;28;20115;-50
2022/09/11 12:30:55;;;;;;;10.43;7.95;;;;;;;24.10;68.96;100955.41;8310050;28;20061;-51
2022/09/11 12:35:01;;;;;;;9.57;8.15;;;;;;;23.85;68.97;100952.44;8313401;28;20055;-54
2022/09/11 12:39:16;;;;;;;15.63;9.02;;;;;;;23.10;70.03;100950.19;8300906;28;20129;-54
2022/09/11 12:43:29;;;;;;;10.20;7.00;;;;;;;23.81;69.53;100950.34;8312028;28;20668;-53
2022/09/11 12:47:38;;;;;;;9.15;7.13;;;;;;;23.51;70.09;100949.97;8293701;28;20037;-53
2022/09/11 12:51:42;;;;;;;10.65;8.95;;;;;;;22.82;73.97;100944.00;8314705;28;20053;-53
2022/09/11 12:56:04;;;;;;;10.68;7.95;;;;;;;22.47;75.39;100938.75;8312807;28;20399;-50
2022/09/11 13:00:19;;;;;;;9.90;7.15;;;;;;;22.38;75.59;100940.03;8311175;28;20049;-54
2022/09/11 13:04:24;;;;;;;7.70;5.72;;;;;;;22.37;74.37;100936.41;8310041;28;20057;-53
2022/09/11 13:08:28;;;;;;;8.05;5.93;;;;;;;22.14;73.98;100927.59;8291280;28;20450;-50
2022/09/11 13:16:43;;;;;;;6.47;5.70;;;;;;;22.04;74.63;100910.63;8394856;27;20382;-50
2022/09/11 13:20:56;;;;;;;8.35;5.20;;;;;;;22.26;72.72;100909.44;8411505;28;20029;-53
2022/09/11 13:25:21;;;;;;;7.60;5.47;;;;;;;22.28;74.42;100904.59;8395079;28;20481;-50
2022/09/11 13:29:23;;;;;;;8.80;6.18;;;;;;;22.22;74.20;100913.66;8397050;28;20036;-51
2022/09/11 13:33:27;;;;;;;6.43;5.30;;;;;;;22.32;73.69;100903.09;8366871;28;20439;-52
2022/09/11 13:37:53;;;;;;;7.03;5.60;;;;;;;22.30;73.60;100899.72;8358247;28;20391;-50
2022/09/11 13:42:01;;;;;;;9.18;5.93;;;;;;;22.18;72.69;100901.38;8373520;28;20051;-50
2022/09/11 13:46:23;;;;;;;6.70;5.13;;;;;;;22.18;73.32;100901.38;8375941;28;20483;-53
2022/09/11 13:50:24;;;;;;;6.80;5.25;;;;;;;22.26;73.20;100898.41;8374451;28;20060;-50
2022/09/11 13:54:29;;;;;;;6.43;3.97;;;;;;;22.45;72.68;100896.78;8371978;28;20048;-53
2022/09/11 13:58:34;;;;;;;7.13;5.07;;;;;;;22.24;72.15;100889.53;8382974;28;20032;-50
2022/09/11 14:06:46;;;;;;;5.82;4.55;;;;;;;22.24;72.55;100889.53;8327732;27;20395;-50
2022/09/11 14:10:51;;;;;;;4.60;4.10;;;;;;;22.23;73.01;100875.97;8317448;28;20048;-50
2022/09/11 14:14:55;;;;;;;4.70;3.92;;;;;;;22.34;71.98;100878.97;8316967;28;20038;-52
2022/09/11 14:19:04;;;;;;;4.68;4.03;;;;;;;22.41;72.02;100871.53;8317150;28;20557;-52
2022/09/11 14:23:05;;;;;;;8.50;4.70;;;;;;;22.35;71.79;100868.78;8334328;28;20096;-50
2022/09/11 14:27:34;;;;;;;6.93;4.10;;;;;;;22.42;72.82;100870.47;8312659;28;20037;-54
2022/09/11 14:31:39;;;;;;;4.97;3.90;;;;;;;22.35;72.23;100864.13;8302406;28;20128;-52
2022/09/11 14:35:39;;;;;;;5.25;4.18;;;;;;;22.13;72.58;100865.31;8315739;28;20117;-52
2022/09/11 14:39:46;;;;;;;5.47;4.65;;;;;;;22.06;72.37;100861.72;8315522;28;20037;-51
2022/09/11 14:43:46;;;;;;;4.05;3.35;;;;;;;22.26;72.93;100846.06;8311141;28;20410;-49
2022/09/11 14:47:47;;;;;;;7.67;3.60;;;;;;;22.25;71.35;100847.13;8315709;28;20129;-54
2022/09/11 14:51:54;;;;;;;6.22;3.08;;;;;;;22.38;72.71;100852.69;8315936;28;20284;-50
2022/09/11 14:55:57;;;;;;;5.55;3.42;;;;;;;22.26;71.32;100859.03;8312333;28;20037;-52
2022/09/11 14:59:58;;;;;;;4.70;3.28;;;;;;;22.27;71.40;100845.03;8309504;28;20052;-53
2022/09/11 15:04:00;;;;;;;4.47;3.05;;;;;;;22.34;70.90;100845.88;8309409;28;20107;-50
2022/09/11 15:08:02;;;;;;;6.45;3.05;;;;;;;22.62;71.52;100838.34;8293679;28;20077;-49
2022/09/11 15:12:04;;;;;;;4.10;3.15;;;;;;;22.38;70.25;100835.31;8302690;28;20053;-53
2022/09/11 15:16:05;;;;;;;4.97;2.90;;;;;;;22.40;69.62;100825.78;8299274;28;20041;-52
2022/09/11 15:20:08;;;;;;;4.53;3.78;;;;;;;22.52;70.28;100832.41;8286844;28;20111;-52
2022/09/11 15:24:09;;;;;;;3.60;2.63;;;;;;;22.34;71.20;100837.63;8282592;28;20510;-53
2022/09/11 15:28:09;;;;;;;3.47;3.00;;;;;;;22.39;70.65;100826.84;8284033;28;20419;-53
2022/09/11 15:32:10;;;;;;;3.17;2.88;;;;;;;22.49;70.38;100816.25;8286429;28;20372;-53
2022/09/11 15:36:12;;;;;;;3.22;2.85;;;;;;;22.44;69.38;100807.75;8288463;28;20121;-54
2022/09/11 15:40:13;;;;;;;4.82;2.85;;;;;;;22.43;68.45;100806.06;8287154;28;20080;-50
2022/09/11 15:44:19;;;;;;;4.32;2.55;;;;;;;22.49;69.40;100807.13;8287589;28;20049;-51
2022/09/11 15:48:20;;;;;;;7.22;2.33;;;;;;;22.36;68.83;100809.88;8289218;28;20049;-50
2022/09/11 15:52:21;;;;;;;2.80;2.35;;;;;;;22.45;69.41;100814.94;8287515;28;20041;-52
2022/09/11 15:56:21;;;;;;;4.13;2.15;;;;;;;22.55;68.41;100820.94;8288523;28;20121;-50
2022/09/11 16:00:22;;;;;;;3.88;2.45;;;;;;;22.46;67.45;100815.81;8288198;28;20465;-52
2022/09/11 16:04:27;;;;;;;3.90;2.70;;;;;;;22.44;67.05;100813.25;8287384;28;20144;-53
2022/09/11 16:08:27;;;;;;;4.55;2.90;;;;;;;22.34;70.65;100817.47;8278412;28;20038;-53
2022/09/11 16:12:27;;;;;;;6.22;3.80;;;;;;;22.42;71.73;100812.59;8280523;28;20061;-54
2022/09/11 16:16:28;;;;;;;4.40;3.53;;;;;;;22.28;70.60;100808.16;8284141;28;20042;-54
2022/09/11 16:20:30;;;;;;;5.72;3.63;;;;;;;22.28;72.26;100807.28;8286050;28;20046;-53
2022/09/11 16:24:36;;;;;;;6.70;3.63;;;;;;;22.09;72.89;100803.47;8282540;28;20048;-53
2022/09/11 16:28:37;;;;;;;5.30;3.83;;;;;;;22.09;72.61;100808.09;8275522;28;20537;-53
2022/09/11 16:32:40;;;;;;;5.43;3.92;;;;;;;22.02;73.62;100808.06;8280850;28;20049;-53
2022/09/11 16:36:41;;;;;;;3.90;3.53;;;;;;;21.93;72.40;100814.00;8285634;28;20033;-54
2022/09/11 16:40:41;;;;;;;5.93;3.72;;;;;;;21.94;72.31;100794.50;8282685;28;20049;-51
2022/09/11 16:44:42;;;;;;;7.70;3.93;;;;;;;21.88;73.66;100800.00;8286712;28;20070;-53
2022/09/11 16:48:43;;;;;;;4.13;3.38;;;;;;;21.89;73.66;100805.28;8287160;28;20800;-53
2022/09/11 16:52:44;;;;;;;7.25;4.20;;;;;;;21.89;74.76;100807.22;8287269;28;20033;-54
2022/09/11 16:56:44;;;;;;;7.30;4.10;;;;;;;21.78;74.73;100800.41;8288046;28;20079;-52
2022/09/11 17:00:45;;;;;;;4.80;3.53;;;;;;;21.70;75.13;100795.03;8287016;28;20513;-53
2022/09/11 17:04:46;;;;;;;10.57;4.35;;;;;;;21.55;76.16;100790.72;8283918;28;20406;-52
2022/09/11 17:08:50;;;;;;;7.30;4.30;;;;;;;21.51;75.84;100787.53;8275862;28;20065;-50
2022/09/11 17:12:50;;;;;;;7.83;3.97;;;;;;;21.44;76.96;100783.06;8282358;28;20045;-52
2022/09/11 17:16:50;;;;;;;6.43;3.70;;;;;;;21.44;76.85;100797.69;8283707;28;20273;-50
2022/09/11 17:20:56;;;;;;;5.35;3.88;;;;;;;21.32;77.27;100799.28;8284732;28;20038;-50
2022/09/11 17:24:56;;;;;;;5.30;4.30;;;;;;;21.18;78.54;100797.50;8281481;28;20046;-51
2022/09/11 17:29:01;;;;;;;4.05;3.65;;;;;;;20.79;82.73;100800.78;8278425;28;20121;-52
2022/09/11 17:33:02;;;;;;;7.68;3.75;;;;;;;20.79;83.73;100798.06;8282991;28;20538;-53
2022/09/11 17:37:03;;;;;;;6.85;3.50;;;;;;;20.64;83.79;100796.44;8280258;28;20441;-52
2022/09/11 17:41:05;;;;;;;4.70;3.65;;;;;;;20.39;85.80;100800.66;8281591;28;20061;-50
2022/09/11 17:45:07;;;;;;;5.43;3.78;;;;;;;20.23;85.98;100795.44;8277677;28;20100;-52
2022/09/11 17:49:08;;;;;;;5.13;3.75;;;;;;;20.00;85.83;100789.25;8277246;28;20046;-50
2022/09/11 17:53:08;;;;;;;4.35;3.88;;;;;;;19.97;85.45;100784.16;8282311;28;20547;-52
2022/09/11 17:57:09;;;;;;;5.57;4.20;;;;;;;19.80;89.74;100782.69;8283666;28;20454;-50
2022/09/11 18:01:11;;;;;;;6.38;4.63;;;;;;;19.38;91.44;100789.78;8282613;28;20579;-50
2022/09/11 18:05:11;;;;;;;7.30;4.40;;;;;;;19.46;89.44;100797.03;8283963;28;20061;-51
2022/09/11 18:09:18;;;;;;;5.95;5.00;;;;;;;19.39;89.84;100791.47;8281711;28;20545;-50
2022/09/11 18:13:20;;;;;;;9.20;5.03;;;;;;;19.23;91.57;100791.63;8282368;28;20030;-51
2022/09/11 18:17:21;;;;;;;9.95;4.80;;;;;;;18.75;95.10;100794.91;8280175;28;20354;-51
2022/09/11 18:21:22;;;;;;;6.95;5.18;;;;;;;18.34;99.05;100799.03;8283464;28;20291;-50
2022/09/11 18:25:24;;;;;;;6.30;5.25;;;;;;;18.43;98.92;100802.56;8283276;28;20100;-51
2022/09/11 18:29:24;;;;;;;6.25;5.28;;;;;;;18.16;100.00;100794.88;8280502;28;20132;-50
2022/09/11 18:33:25;;;;;;;9.95;6.28;;;;;;;17.89;100.00;100796.25;8283246;28;20046;-50
2022/09/11 18:37:25;;;;;;;9.40;5.53;;;;;;;17.94;100.00;100796.59;8284624;28;20301;-51
2022/09/11 18:41:27;;;;;;;8.40;5.40;;;;;;;18.16;100.00;100795.75;8283452;28;20042;-50
2022/09/11 18:45:29;;;;;;;12.00;5.75;;;;;;;18.44;99.19;100802.38;8275656;28;20539;-53
2022/09/11 18:49:29;;;;;;;10.48;6.20;;;;;;;17.76;100.00;100803.34;8283806;28;20061;-51
2022/09/11 18:53:30;;;;;;;7.18;6.32;;;;;;;17.52;100.00;100798.88;8289050;28;20030;-50
2022/09/11 18:57:32;;;;;;;10.13;6.85;;;;;;;17.57;100.00;100804.66;8287056;28;20038;-51
2022/09/11 19:01:33;;;;;;;13.82;6.22;;;;;;;17.52;100.00;100796.13;8287356;28;20117;-50
2022/09/11 19:05:33;;;;;;;8.60;6.47;;;;;;;17.43;100.00;100802.66;8288049;28;20045;-50
2022/09/11 19:09:34;;;;;;;9.02;6.63;;;;;;;17.54;100.00;100805.84;8289521;28;20034;-50
2022/09/11 19:13:36;;;;;;;6.35;5.65;;;;;;;17.49;100.00;100801.97;8287637;28;20099;-52
2022/09/11 19:17:37;;;;;;;12.93;6.70;;;;;;;17.59;100.00;100803.44;8285167;28;20418;-50